Terminal Aerodrome Forecast
Issued by NWS

Home | Current Version | Previous Version | Text Only | Print | Product List | Glossary On
Versions: 1 2 3 4 5 6 7 8 9 10 11 12 13 14 15 16 17 18
000
FTUS44 KLZK 232300 RRA
TAFHRO
TAF
KHRO 232343Z 2400/2424 12010KT P6SM SCT250
     FM240700 15008KT P6SM SCT040 BKN250
     FM241400 17012G20KT P6SM VCSH SCT025 BKN050
     FM241800 20014G24KT P6SM -SHRA VCTS BKN025CB PROB30 2418/2424
      4SM -TSRA BR OVC020CB=

USA.gov is the U.S. government's official web portal to all federal, state and local government web resources and services.